Time;durP1;ratioP1;P1;durP2;ratioP2;P2;SDS_P1;SDS_P2;PMS_P1;PMS_P2;Temp;Humidity;BMP_temperature;BMP_pressure;BME280_temperature;BME280_humidity;BME280_pressure;Samples;Min_cycle;Max_cycle;Signal;HPM_P1;HPM_P2
2022/08/05 00:01:00;;;;;;;0.27;0.27;;;22.00;1.00;;;;;;5031763;28;20226;-75
2022/08/05 00:03:25;;;;;;;0.40;0.40;;;21.90;1.00;;;;;;5042896;28;20211;-75
2022/08/05 00:05:51;;;;;;;0.40;0.40;;;21.90;1.00;;;;;;5049577;28;20231;-76
2022/08/05 00:08:16;;;;;;;0.30;0.30;;;22.00;1.00;;;;;;5045804;28;20632;-76
2022/08/05 00:10:42;;;;;;;0.30;0.30;;;21.90;1.00;;;;;;5050395;28;20205;-77
2022/08/05 00:13:07;;;;;;;0.30;0.30;;;21.70;1.00;;;;;;5041283;28;20241;-76
2022/08/05 00:15:33;;;;;;;0.30;0.30;;;21.50;1.00;;;;;;5031794;28;20179;-76
2022/08/05 00:17:58;;;;;;;0.30;0.30;;;21.20;5.90;;;;;;5043272;28;20202;-76
2022/08/05 00:20:24;;;;;;;0.20;0.20;;;21.20;27.90;;;;;;5050862;28;20304;-76
2022/08/05 00:22:49;;;;;;;0.30;0.30;;;21.20;1.00;;;;;;5049408;28;20203;-75
2022/08/05 00:25:15;;;;;;;0.30;0.30;;;21.20;28.30;;;;;;5038879;28;20684;-76
2022/08/05 00:27:40;;;;;;;0.30;0.30;;;21.10;5.00;;;;;;5038832;28;20187;-75
2022/08/05 00:30:06;;;;;;;0.30;0.30;;;21.10;4.90;;;;;;5046689;28;20191;-76
2022/08/05 00:32:32;;;;;;;0.30;0.30;;;21.20;1.00;;;;;;5035857;28;20222;-76
2022/08/05 00:34:57;;;;;;;0.30;0.30;;;21.10;1.00;;;;;;5047489;28;20641;-76
2022/08/05 00:37:23;;;;;;;0.30;0.30;;;21.00;8.40;;;;;;5047046;28;20187;-76
2022/08/05 00:39:49;;;;;;;0.40;0.40;;;21.10;6.00;;;;;;5050095;28;20175;-76
2022/08/05 00:42:15;;;;;;;0.40;0.40;;;21.10;3.30;;;;;;5048713;28;20318;-76
2022/08/05 00:44:42;;;;;;;0.30;0.30;;;21.20;1.00;;;;;;5045199;28;20258;-76
2022/08/05 00:47:07;;;;;;;0.30;0.30;;;21.10;1.00;;;;;;5045745;28;20176;-76
2022/08/05 00:49:33;;;;;;;0.30;0.30;;;21.10;1.00;;;;;;5050090;28;20587;-77
2022/08/05 00:51:58;;;;;;;0.30;0.30;;;21.10;1.00;;;;;;5048077;28;20180;-77
2022/08/05 00:54:24;;;;;;;0.30;0.30;;;21.10;1.00;;;;;;5048869;28;20186;-76
2022/08/05 00:56:49;;;;;;;0.40;0.40;;;21.20;1.00;;;;;;5048762;28;20179;-77
2022/08/05 00:59:15;;;;;;;0.30;0.30;;;21.30;1.00;;;;;;5038565;28;20167;-77
2022/08/05 01:01:40;;;;;;;0.27;0.27;;;21.40;1.00;;;;;;5045878;28;20186;-76
2022/08/05 01:04:06;;;;;;;0.30;0.30;;;21.20;1.00;;;;;;5045962;28;20604;-76
2022/08/05 01:06:31;;;;;;;0.30;0.30;;;21.10;1.00;;;;;;5041946;28;20202;-76
2022/08/05 01:08:57;;;;;;;0.40;0.40;;;21.00;1.00;;;;;;5039387;28;20205;-76
2022/08/05 01:11:29;;;;;;;0.30;0.30;;;20.90;1.00;;;;;;5047700;28;20616;-76
2022/08/05 01:14:13;;;;;;;0.30;0.30;;;20.90;1.00;;;;;;5045591;28;20211;-76
2022/08/05 01:17:01;;;;;;;0.30;0.30;;;21.00;1.00;;;;;;5032429;28;20186;-76
2022/08/05 01:19:38;;;;;;;0.40;0.40;;;21.00;1.00;;;;;;5032438;28;20207;-76
2022/08/05 01:22:16;;;;;;;0.40;0.40;;;21.00;1.00;;;;;;5038497;28;20179;-76
2022/08/05 01:25:03;;;;;;;0.30;0.30;;;21.00;1.00;;;;;;5038070;28;20703;-76
2022/08/05 01:27:42;;;;;;;0.30;0.30;;;21.30;99.90;;;;;;5045895;28;20210;-76
2022/08/05 01:30:09;;;;;;;0.30;0.30;;;21.40;99.90;;;;;;5049992;28;20175;-76
2022/08/05 01:32:37;;;;;;;0.30;0.30;;;21.50;99.90;;;;;;5048617;28;20564;-76
2022/08/05 01:35:14;;;;;;;0.30;0.30;;;21.70;1.00;;;;;;5045972;28;20175;-76
2022/08/05 01:37:52;;;;;;;0.30;0.30;;;21.80;1.00;;;;;;5030793;28;20608;-76
2022/08/05 01:40:20;;;;;;;0.30;0.30;;;21.90;94.40;;;;;;5030845;28;20174;-76
2022/08/05 01:42:49;;;;;;;0.30;0.30;;;22.10;99.90;;;;;;5036015;28;20207;-76
2022/08/05 01:45:15;;;;;;;0.30;0.30;;;22.30;1.00;;;;;;5050002;28;20211;-76
2022/08/05 01:47:43;;;;;;;0.30;0.30;;;22.50;99.90;;;;;;5030866;28;20254;-77
2022/08/05 01:50:13;;;;;;;0.33;0.33;;;22.70;99.90;;;;;;5032560;28;20184;-76
2022/08/05 01:52:41;;;;;;;0.30;0.30;;;22.80;99.90;;;;;;5048107;28;20336;-77
2022/08/05 01:55:11;;;;;;;0.30;0.30;;;22.80;99.90;;;;;;5041776;28;20219;-76
2022/08/05 01:57:41;;;;;;;0.30;0.30;;;22.80;99.90;;;;;;5048557;28;20207;-76
2022/08/05 02:00:08;;;;;;;0.30;0.30;;;22.80;99.90;;;;;;5050339;28;20312;-77
2022/08/05 02:02:36;;;;;;;0.40;0.40;;;22.70;99.90;;;;;;5045106;28;20204;-76
2022/08/05 02:05:08;;;;;;;0.30;0.30;;;22.70;99.90;;;;;;5043248;28;20219;-76
2022/08/05 02:07:34;;;;;;;0.30;0.30;;;22.80;99.90;;;;;;5040942;28;20179;-77
2022/08/05 02:10:00;;;;;;;0.30;0.30;;;22.80;99.90;;;;;;5047661;28;20191;-76
2022/08/05 02:12:41;;;;;;;0.30;0.30;;;22.80;99.90;;;;;;5038218;28;20207;-77
2022/08/05 02:15:20;;;;;;;0.30;0.30;;;22.80;99.90;;;;;;5035130;28;20208;-77
2022/08/05 02:17:57;;;;;;;0.37;0.37;;;22.80;99.90;;;;;;5042480;28;20556;-76
2022/08/05 02:20:26;;;;;;;0.30;0.30;;;22.80;99.90;;;;;;5050802;28;20194;-76
2022/08/05 02:22:57;;;;;;;0.30;0.30;;;22.80;99.90;;;;;;5039924;28;20229;-76
2022/08/05 02:25:30;;;;;;;0.20;0.20;;;22.80;99.90;;;;;;5053061;28;20261;-76
2022/08/05 02:27:57;;;;;;;0.30;0.30;;;22.80;99.90;;;;;;5043026;28;20194;-76
2022/08/05 02:30:25;;;;;;;0.30;0.30;;;22.80;1.00;;;;;;5035139;28;20584;-76
2022/08/05 02:32:54;;;;;;;0.20;0.20;;;22.70;1.00;;;;;;5051245;28;20210;-76
2022/08/05 02:35:22;;;;;;;0.30;0.30;;;22.70;1.00;;;;;;5051717;28;20546;-77
2022/08/05 02:37:50;;;;;;;0.30;0.30;;;22.70;1.00;;;;;;5043584;28;20750;-76
2022/08/05 02:40:17;;;;;;;0.30;0.30;;;22.60;1.00;;;;;;5033034;28;20182;-77
2022/08/05 02:42:44;;;;;;;0.30;0.30;;;22.50;1.00;;;;;;5033719;28;20208;-76
2022/08/05 02:45:11;;;;;;;0.40;0.40;;;22.50;26.60;;;;;;5038031;28;20296;-76
2022/08/05 02:47:37;;;;;;;0.20;0.20;;;22.40;96.90;;;;;;5033629;28;20188;-77
2022/08/05 02:50:05;;;;;;;0.30;0.30;;;22.40;96.70;;;;;;5033105;28;20189;-76
2022/08/05 02:52:31;;;;;;;0.33;0.33;;;22.40;99.90;;;;;;5034349;28;20199;-76
2022/08/05 02:54:59;;;;;;;0.30;0.30;;;22.30;99.90;;;;;;5039424;28;20179;-77
2022/08/05 02:57:26;;;;;;;0.20;0.20;;;22.30;99.90;;;;;;5043662;28;20203;-76
2022/08/05 02:59:53;;;;;;;0.30;0.30;;;22.30;99.90;;;;;;5037824;28;20186;-77
2022/08/05 03:02:23;;;;;;;0.30;0.30;;;22.40;99.90;;;;;;5048234;28;21575;-76
2022/08/05 03:04:50;;;;;;;0.20;0.20;;;22.30;1.00;;;;;;5048803;28;20229;-76
2022/08/05 03:07:17;;;;;;;0.30;0.30;;;22.20;99.90;;;;;;5052789;28;20230;-76
2022/08/05 03:09:44;;;;;;;0.30;0.30;;;22.20;1.00;;;;;;5048519;28;20616;-76
2022/08/05 03:12:27;;;;;;;0.40;0.40;;;22.10;99.90;;;;;;5045648;28;20179;-77
2022/08/05 03:14:53;;;;;;;0.30;0.30;;;22.00;99.90;;;;;;5048351;28;20168;-76
2022/08/05 03:17:18;;;;;;;0.30;0.30;;;22.00;1.00;;;;;;5044754;28;20274;-76
2022/08/05 03:19:43;;;;;;;0.30;0.30;;;22.00;1.00;;;;;;5034440;28;20176;-77
2022/08/05 03:22:09;;;;;;;0.50;0.50;;;21.90;1.00;;;;;;5032854;28;20180;-76
2022/08/05 03:24:35;;;;;;;0.30;0.30;;;22.00;99.90;;;;;;5051083;28;20313;-77
2022/08/05 03:27:00;;;;;;;0.30;0.30;;;22.10;99.90;;;;;;5048731;28;20270;-77
2022/08/05 03:29:26;;;;;;;0.30;0.30;;;22.10;1.00;;;;;;5047171;28;20176;-76
2022/08/05 03:31:52;;;;;;;0.30;0.30;;;22.10;1.00;;;;;;5051735;28;20183;-76
2022/08/05 03:34:18;;;;;;;0.30;0.30;;;22.00;99.90;;;;;;5053001;28;20183;-76
2022/08/05 03:36:44;;;;;;;0.30;0.30;;;21.90;1.00;;;;;;5054192;28;20297;-76
2022/08/05 03:39:09;;;;;;;0.30;0.30;;;21.80;1.00;;;;;;5049170;28;20286;-76
2022/08/05 03:41:35;;;;;;;0.30;0.30;;;21.70;3.20;;;;;;5032964;28;20271;-76
2022/08/05 03:44:00;;;;;;;0.30;0.30;;;21.80;1.00;;;;;;5043464;28;20246;-76
2022/08/05 03:46:26;;;;;;;0.30;0.30;;;21.70;99.90;;;;;;5043543;28;20655;-76
2022/08/05 03:48:51;;;;;;;0.40;0.40;;;21.50;1.00;;;;;;5036519;28;20180;-76
2022/08/05 03:51:26;;;;;;;0.40;0.40;;;21.40;93.80;;;;;;5048499;28;20184;-76
2022/08/05 03:54:05;;;;;;;0.30;0.30;;;21.40;99.90;;;;;;5033754;28;20207;-76
2022/08/05 03:56:38;;;;;;;0.30;0.30;;;21.40;99.90;;;;;;5044660;28;20183;-76
2022/08/05 03:59:08;;;;;;;0.30;0.30;;;21.40;99.90;;;;;;5045557;28;20204;-76
2022/08/05 04:01:39;;;;;;;0.30;0.30;;;21.20;1.00;;;;;;5036183;28;20285;-76
2022/08/05 04:04:05;;;;;;;0.30;0.30;;;21.10;1.00;;;;;;5040897;28;20858;-76
2022/08/05 04:06:33;;;;;;;0.30;0.30;;;21.00;1.00;;;;;;5032335;28;20190;-76
2022/08/05 04:09:00;;;;;;;0.30;0.30;;;21.00;1.00;;;;;;5047169;28;20194;-75
2022/08/05 04:11:26;;;;;;;0.30;0.30;;;21.00;1.00;;;;;;5034715;28;20537;-76
2022/08/05 04:13:53;;;;;;;0.30;0.30;;;21.00;1.00;;;;;;5046800;28;20206;-76
2022/08/05 04:16:19;;;;;;;0.30;0.30;;;21.00;1.00;;;;;;5031864;28;20211;-75
2022/08/05 04:18:45;;;;;;;0.30;0.30;;;20.90;1.00;;;;;;5031986;28;20195;-76
2022/08/05 04:21:11;;;;;;;0.33;0.33;;;20.90;1.00;;;;;;5048520;28;20187;-75
2022/08/05 04:23:37;;;;;;;0.30;0.30;;;21.00;99.90;;;;;;5045826;28;20649;-76
2022/08/05 04:26:03;;;;;;;0.40;0.40;;;21.10;99.90;;;;;;5035482;28;20572;-76
2022/08/05 04:28:29;;;;;;;0.40;0.40;;;21.10;99.90;;;;;;5041560;28;20667;-76
2022/08/05 04:30:55;;;;;;;0.30;0.30;;;21.10;99.90;;;;;;5035494;28;20172;-76
2022/08/05 04:33:20;;;;;;;0.33;0.33;;;21.00;1.00;;;;;;5046576;28;20633;-76
2022/08/05 04:35:46;;;;;;;0.30;0.30;;;21.00;1.00;;;;;;5031609;28;20195;-76
2022/08/05 04:38:11;;;;;;;0.30;0.30;;;21.00;1.00;;;;;;5031479;28;20664;-76
2022/08/05 04:40:38;;;;;;;0.30;0.30;;;21.00;1.00;;;;;;5043312;28;20182;-76
2022/08/05 04:43:04;;;;;;;0.30;0.30;;;21.10;1.00;;;;;;5041727;28;20203;-75
2022/08/05 04:45:31;;;;;;;0.33;0.33;;;21.20;1.00;;;;;;5038223;28;20706;-76
2022/08/05 04:48:10;;;;;;;0.30;0.30;;;21.20;1.00;;;;;;5043941;28;20179;-75
2022/08/05 04:50:48;;;;;;;0.30;0.30;;;21.30;1.00;;;;;;5042867;28;20566;-76
2022/08/05 04:53:15;;;;;;;0.30;0.30;;;21.30;1.00;;;;;;5041763;28;20602;-75
2022/08/05 04:55:42;;;;;;;0.30;0.30;;;21.20;1.00;;;;;;5048888;28;20190;-76
2022/08/05 04:58:10;;;;;;;0.30;0.30;;;21.20;1.00;;;;;;5031535;28;20171;-76
2022/08/05 05:00:36;;;;;;;0.30;0.30;;;21.20;1.00;;;;;;5030654;28;20184;-75
2022/08/05 05:03:04;;;;;;;0.30;0.30;;;21.00;1.00;;;;;;5037277;28;20668;-76
2022/08/05 05:05:30;;;;;;;0.37;0.37;;;20.90;1.00;;;;;;5031886;28;20211;-75
2022/08/05 05:08:00;;;;;;;0.30;0.30;;;21.00;1.00;;;;;;5046661;28;20168;-76
2022/08/05 05:10:26;;;;;;;0.30;0.30;;;21.10;1.00;;;;;;5034554;28;20180;-75
2022/08/05 05:12:51;;;;;;;0.30;0.30;;;21.20;1.00;;;;;;5040521;28;20214;-76
2022/08/05 05:15:17;;;;;;;0.40;0.40;;;21.30;1.00;;;;;;5050070;28;20228;-75
2022/08/05 05:17:43;;;;;;;0.20;0.20;;;21.50;99.90;;;;;;5037502;28;20190;-75
2022/08/05 05:20:10;;;;;;;0.30;0.30;;;21.70;1.00;;;;;;5032272;28;20198;-76
2022/08/05 05:22:36;;;;;;;0.30;0.30;;;21.80;99.90;;;;;;5044594;28;20207;-75
2022/08/05 05:25:03;;;;;;;0.30;0.30;;;22.10;1.00;;;;;;5037451;28;20269;-75
2022/08/05 05:27:30;;;;;;;0.40;0.40;;;22.40;1.00;;;;;;5035692;28;20743;-75
2022/08/05 05:29:56;;;;;;;0.40;0.40;;;22.60;1.00;;;;;;5048560;28;20179;-75
2022/08/05 05:32:22;;;;;;;0.40;0.40;;;22.80;1.00;;;;;;5048543;28;20203;-76
2022/08/05 05:34:47;;;;;;;0.33;0.33;;;22.90;1.00;;;;;;5050513;28;20182;-76
2022/08/05 05:37:13;;;;;;;0.30;0.30;;;23.10;99.90;;;;;;5045711;28;20664;-76
2022/08/05 05:39:39;;;;;;;0.20;0.20;;;23.40;99.90;;;;;;5051053;28;20221;-76
2022/08/05 05:42:05;;;;;;;0.40;0.40;;;23.60;1.00;;;;;;5047979;28;20214;-75
2022/08/05 05:44:30;;;;;;;0.30;0.30;;;23.60;99.90;;;;;;5053791;28;20206;-75
2022/08/05 05:46:56;;;;;;;0.30;0.30;;;23.60;1.00;;;;;;5038206;28;20181;-77
2022/08/05 05:49:22;;;;;;;0.40;0.40;;;23.60;99.90;;;;;;5050606;28;20667;-76
2022/08/05 05:51:47;;;;;;;0.33;0.33;;;23.60;99.90;;;;;;5044062;28;20170;-76
2022/08/05 05:54:13;;;;;;;0.30;0.30;;;23.60;1.00;;;;;;5045439;28;20206;-76
2022/08/05 05:56:38;;;;;;;0.30;0.30;;;23.70;1.00;;;;;;5045034;28;20217;-76
2022/08/05 05:59:05;;;;;;;0.30;0.30;;;23.70;1.00;;;;;;5042055;28;20179;-76
2022/08/05 06:01:31;;;;;;;0.30;0.30;;;23.80;1.00;;;;;;5042530;28;20182;-76
2022/08/05 06:03:57;;;;;;;0.30;0.30;;;23.80;1.00;;;;;;5039256;28;20199;-76
2022/08/05 06:06:22;;;;;;;0.30;0.30;;;24.10;1.00;;;;;;5048889;28;20179;-76
2022/08/05 06:08:48;;;;;;;0.30;0.30;;;24.40;1.00;;;;;;5052035;28;20629;-75
2022/08/05 06:11:13;;;;;;;0.23;0.23;;;24.50;1.00;;;;;;5050286;28;20183;-76
2022/08/05 06:13:39;;;;;;;0.30;0.30;;;24.70;99.90;;;;;;5045421;28;20206;-76
2022/08/05 06:16:04;;;;;;;0.30;0.30;;;24.80;99.90;;;;;;5050724;28;20179;-75
2022/08/05 06:18:30;;;;;;;0.40;0.40;;;24.90;99.90;;;;;;5039591;28;20253;-75
2022/08/05 06:20:55;;;;;;;0.40;0.40;;;25.00;99.90;;;;;;5040595;28;20184;-76
2022/08/05 06:23:21;;;;;;;0.30;0.30;;;25.20;99.90;;;;;;5046419;28;20214;-76
2022/08/05 06:25:47;;;;;;;0.37;0.37;;;25.30;31.20;;;;;;5051473;28;20215;-75
2022/08/05 06:28:13;;;;;;;0.40;0.40;;;25.40;59.90;;;;;;5051382;28;20179;-74
2022/08/05 06:30:38;;;;;;;0.40;0.40;;;25.40;1.00;;;;;;5046273;28;20209;-75
2022/08/05 06:33:04;;;;;;;0.30;0.30;;;25.60;1.00;;;;;;5042902;28;20198;-75
2022/08/05 06:35:29;;;;;;;0.40;0.40;;;25.70;1.00;;;;;;5048700;28;20196;-75
2022/08/05 06:37:55;;;;;;;0.40;0.40;;;25.80;1.00;;;;;;5047506;28;20277;-75
2022/08/05 06:40:20;;;;;;;0.37;0.37;;;25.80;1.00;;;;;;5043599;28;20228;-76
2022/08/05 06:42:47;;;;;;;0.40;0.40;;;26.00;1.00;;;;;;5051598;28;20203;-75
2022/08/05 06:45:12;;;;;;;0.40;0.40;;;25.90;1.00;;;;;;5052703;28;20302;-75
2022/08/05 06:47:38;;;;;;;0.30;0.30;;;25.90;1.00;;;;;;5046545;28;20180;-76
2022/08/05 06:50:03;;;;;;;0.33;0.33;;;26.00;1.00;;;;;;5044082;28;20175;-76
2022/08/05 06:52:29;;;;;;;0.20;0.20;;;26.10;1.00;;;;;;5041896;28;20624;-75
2022/08/05 06:54:55;;;;;;;0.47;0.47;;;26.10;1.00;;;;;;5049447;28;20179;-75
2022/08/05 06:57:20;;;;;;;0.33;0.33;;;26.30;1.00;;;;;;5038059;28;20175;-75
2022/08/05 06:59:46;;;;;;;0.33;0.33;;;26.40;1.00;;;;;;5045518;28;20524;-75
2022/08/05 07:02:11;;;;;;;0.30;0.30;;;26.60;1.00;;;;;;5040172;28;20200;-75
2022/08/05 07:04:37;;;;;;;0.30;0.30;;;26.90;1.00;;;;;;5051010;28;20207;-75
2022/08/05 07:07:02;;;;;;;0.30;0.30;;;27.30;1.00;;;;;;5036563;28;20522;-76
2022/08/05 07:09:28;;;;;;;0.40;0.40;;;27.40;1.00;;;;;;5039031;28;20234;-75
2022/08/05 07:11:54;;;;;;;0.30;0.30;;;27.50;1.00;;;;;;5052324;28;20179;-75
2022/08/05 07:17:04;;;;;;;0.50;0.50;;;27.80;1.00;;;;;;5033243;28;20655;-75
2022/08/05 07:19:30;;;;;;;0.30;0.30;;;27.90;1.00;;;;;;5035938;28;20215;-76
2022/08/05 07:21:56;;;;;;;0.43;0.43;;;28.00;1.00;;;;;;5049971;28;20184;-75
2022/08/05 07:24:22;;;;;;;0.40;0.40;;;27.90;1.00;;;;;;5032608;28;20214;-75
2022/08/05 07:26:48;;;;;;;0.33;0.33;;;28.10;1.00;;;;;;5037833;28;20241;-76
2022/08/05 07:29:14;;;;;;;0.50;0.50;;;28.30;1.00;;;;;;5037848;28;20180;-75
2022/08/05 07:31:40;;;;;;;0.50;0.50;;;28.20;1.00;;;;;;5049344;28;20224;-75
2022/08/05 07:34:06;;;;;;;0.40;0.40;;;28.40;1.00;;;;;;5051577;28;20191;-76
2022/08/05 07:36:32;;;;;;;0.50;0.50;;;28.50;1.00;;;;;;5052333;28;20184;-76
2022/08/05 07:39:02;;;;;;;0.50;0.50;;;28.80;1.00;;;;;;5046140;28;20652;-76
2022/08/05 07:41:28;;;;;;;0.50;0.50;;;29.10;1.00;;;;;;5049397;28;20225;-75
2022/08/05 07:43:54;;;;;;;0.60;0.60;;;29.20;1.00;;;;;;5042869;28;20207;-76
2022/08/05 07:46:20;;;;;;;0.50;0.50;;;29.70;1.00;;;;;;5048593;28;20202;-76
2022/08/05 07:48:45;;;;;;;0.50;0.50;;;29.70;1.00;;;;;;5049802;28;20274;-75
2022/08/05 07:51:11;;;;;;;0.60;0.60;;;30.20;1.00;;;;;;5047807;28;20171;-76
2022/08/05 07:53:37;;;;;;;0.40;0.40;;;30.20;1.00;;;;;;5043620;28;20207;-76
2022/08/05 07:56:03;;;;;;;0.45;0.45;;;30.70;1.00;;;;;;5051460;28;20203;-76
2022/08/05 07:58:29;;;;;;;0.45;0.45;;;30.90;1.00;;;;;;5045560;28;20329;-76
2022/08/05 08:00:55;;;;;;;0.20;0.20;;;31.10;1.00;;;;;;5051555;28;20196;-76
2022/08/05 08:03:20;;;;;;;0.10;0.10;;;31.50;1.00;;;;;;5046201;28;20203;-76
2022/08/05 08:05:46;;;;;;;0.30;0.30;;;31.70;1.00;;;;;;5042080;28;20321;-77
2022/08/05 08:08:12;;;;;;;0.20;0.20;;;31.90;1.00;;;;;;5051588;28;20182;-76
2022/08/05 08:10:37;;;;;;;0.10;0.10;;;31.80;1.00;;;;;;5034144;28;20245;-76
2022/08/05 08:13:04;;;;;;;0.13;0.13;;;31.90;1.00;;;;;;5044806;28;20198;-77
2022/08/05 08:15:30;;;;;;;0.15;0.15;;;32.00;1.00;;;;;;5049990;28;20554;-76
2022/08/05 08:17:55;;;;;;;0.10;0.10;;;31.90;1.00;;;;;;5046852;28;20179;-75
2022/08/05 08:20:22;;;;;;;0.10;0.10;;;32.40;1.00;;;;;;5033896;28;20172;-76
2022/08/05 08:22:56;;;;;;;0.10;0.10;;;32.40;1.00;;;;;;5044734;28;20199;-76
2022/08/05 08:25:22;;;;;;;0.15;0.15;;;32.50;1.00;;;;;;5042327;28;20718;-76
2022/08/05 08:27:48;;;;;;;0.00;0.00;;;32.60;1.00;;;;;;5050412;28;20190;-76
2022/08/05 08:30:14;;;;;;;0.00;0.00;;;32.80;1.00;;;;;;5049605;28;20175;-76
2022/08/05 08:32:40;;;;;;;0.10;0.10;;;32.80;1.00;;;;;;5045926;28;20199;-77
2022/08/05 08:35:06;;;;;;;0.10;0.10;;;33.10;1.00;;;;;;5044412;28;20187;-76
2022/08/05 08:37:32;;;;;;;0.10;0.10;;;33.30;1.00;;;;;;5041394;28;20180;-76
2022/08/05 08:39:58;;;;;;;0.10;0.10;;;33.60;1.00;;;;;;5035052;28;20258;-76
2022/08/05 08:42:24;;;;;;;0.00;0.00;;;33.80;1.00;;;;;;5037785;28;20274;-75
2022/08/05 08:44:53;;;;;;;0.20;0.20;;;33.40;1.00;;;;;;5041350;28;20297;-76
2022/08/05 08:47:25;;;;;;;0.20;0.20;;;33.40;1.00;;;;;;5042923;28;20184;-76
2022/08/05 08:49:52;;;;;;;0.10;0.10;;;33.70;1.00;;;;;;5046730;28;20643;-75
2022/08/05 08:52:29;;;;;;;0.10;0.10;;;33.80;1.00;;;;;;5031318;28;20274;-76
2022/08/05 08:54:56;;;;;;;0.20;0.20;;;34.00;1.00;;;;;;5038794;28;20861;-75
2022/08/05 08:57:22;;;;;;;0.10;0.10;;;34.20;1.00;;;;;;5042742;28;20188;-76
2022/08/05 08:59:48;;;;;;;0.20;0.20;;;34.30;1.00;;;;;;5044423;28;20176;-76
2022/08/05 09:02:17;;;;;;;0.20;0.20;;;34.50;1.00;;;;;;5045666;28;20406;-75
2022/08/05 09:04:44;;;;;;;0.10;0.10;;;34.40;1.00;;;;;;5045393;28;20666;-76
2022/08/05 09:07:09;;;;;;;0.30;0.30;;;34.40;1.00;;;;;;5036238;28;20177;-77
2022/08/05 09:09:36;;;;;;;0.20;0.20;;;34.40;1.00;;;;;;5040791;28;20195;-77
2022/08/05 09:12:07;;;;;;;0.40;0.40;;;34.50;1.00;;;;;;5048366;28;20180;-76
2022/08/05 09:14:34;;;;;;;0.20;0.20;;;34.50;1.00;;;;;;5037198;28;20212;-76
2022/08/05 09:17:00;;;;;;;0.22;0.22;;;34.50;1.00;;;;;;5052942;28;20172;-77
2022/08/05 09:19:26;;;;;;;0.30;0.30;;;34.90;1.00;;;;;;5040645;28;20260;-77
2022/08/05 09:21:52;;;;;;;0.20;0.20;;;34.30;1.00;;;;;;5052273;28;20260;-76
2022/08/05 09:24:17;;;;;;;0.15;0.15;;;33.30;1.00;;;;;;5037965;28;20302;-76
2022/08/05 09:26:49;;;;;;;0.10;0.10;;;32.60;1.00;;;;;;5046531;28;20623;-76
2022/08/05 09:29:15;;;;;;;0.10;0.10;;;31.80;1.00;;;;;;5051010;28;20767;-76
2022/08/05 09:31:42;;;;;;;0.20;0.20;;;31.10;1.00;;;;;;5053038;28;20191;-76
2022/08/05 09:34:09;;;;;;;0.32;0.32;;;31.90;1.00;;;;;;5049862;28;20675;-75
2022/08/05 09:36:48;;;;;;;0.20;0.20;;;32.80;1.00;;;;;;5048216;28;20189;-74
2022/08/05 09:39:16;;;;;;;0.15;0.15;;;33.50;1.00;;;;;;5049234;28;20306;-74
2022/08/05 09:42:02;;;;;;;0.10;0.10;;;33.70;1.00;;;;;;5054519;28;20183;-75
2022/08/05 09:44:44;;;;;;;0.20;0.20;;;34.10;1.00;;;;;;5039740;28;20215;-74
2022/08/05 09:47:21;;;;;;;0.10;0.10;;;34.10;1.00;;;;;;5035605;28;20667;-76
2022/08/05 09:49:52;;;;;;;0.10;0.10;;;34.40;1.00;;;;;;5041701;28;20179;-75
2022/08/05 09:52:22;;;;;;;0.20;0.20;;;34.00;1.00;;;;;;5053343;28;20744;-74
2022/08/05 09:55:07;;;;;;;0.10;0.10;;;33.40;1.00;;;;;;5037553;28;20273;-75
2022/08/05 09:57:42;;;;;;;0.10;0.10;;;33.50;1.00;;;;;;5045174;28;20207;-74
2022/08/05 10:00:17;;;;;;;0.03;0.03;;;33.80;1.00;;;;;;5046176;28;20185;-74
2022/08/05 10:02:48;;;;;;;0.10;0.10;;;32.80;1.00;;;;;;5053314;28;20555;-74
2022/08/05 10:05:22;;;;;;;0.20;0.20;;;32.40;1.00;;;;;;5044114;28;20207;-75
2022/08/05 10:07:52;;;;;;;0.32;0.32;;;32.30;1.00;;;;;;5052415;28;20662;-74
2022/08/05 10:10:24;;;;;;;0.38;0.38;;;32.60;1.00;;;;;;5039772;28;20500;-75
2022/08/05 10:12:53;;;;;;;0.40;0.40;;;33.00;1.00;;;;;;5047091;28;20195;-74
2022/08/05 10:15:20;;;;;;;0.30;0.30;;;33.60;1.00;;;;;;5044542;28;20530;-75
2022/08/05 10:18:12;;;;;;;0.30;0.30;;;33.80;1.00;;;;;;5053093;28;20182;-75
2022/08/05 10:20:43;;;;;;;0.30;0.30;;;34.00;1.00;;;;;;5036392;28;20512;-75
2022/08/05 10:23:11;;;;;;;0.20;0.20;;;34.20;1.00;;;;;;5045332;28;20214;-75
2022/08/05 10:25:36;;;;;;;0.20;0.20;;;34.50;1.00;;;;;;5049745;28;20215;-74
2022/08/05 10:28:02;;;;;;;0.17;0.17;;;33.80;1.00;;;;;;5045164;28;20622;-75
2022/08/05 10:30:28;;;;;;;0.30;0.30;;;34.10;1.00;;;;;;5043072;28;20703;-75
2022/08/05 10:32:57;;;;;;;0.20;0.20;;;34.40;1.00;;;;;;5038825;28;20191;-75
2022/08/05 10:35:23;;;;;;;0.20;0.20;;;34.00;1.00;;;;;;5038775;28;20199;-75
2022/08/05 10:37:50;;;;;;;0.20;0.20;;;34.30;1.00;;;;;;5046864;28;20231;-75
2022/08/05 10:40:37;;;;;;;0.30;0.30;;;34.90;1.00;;;;;;5048408;28;20652;-75
2022/08/05 10:43:18;;;;;;;0.10;0.10;;;35.20;1.00;;;;;;5033598;28;20203;-75
2022/08/05 10:45:56;;;;;;;0.15;0.15;;;35.90;1.00;;;;;;5037811;28;20273;-75
2022/08/05 10:48:34;;;;;;;0.20;0.20;;;36.20;1.00;;;;;;5034775;28;20206;-75
2022/08/05 10:51:08;;;;;;;0.10;0.10;;;35.70;1.00;;;;;;5032903;28;20175;-76
2022/08/05 10:53:42;;;;;;;0.20;0.20;;;34.80;1.00;;;;;;5040001;28;20552;-75
2022/08/05 10:56:14;;;;;;;0.20;0.20;;;34.30;1.00;;;;;;5036868;28;20193;-75
2022/08/05 10:59:03;;;;;;;0.32;0.32;;;33.90;1.00;;;;;;5048478;28;20179;-74
2022/08/05 11:01:40;;;;;;;0.30;0.30;;;34.40;1.00;;;;;;5038983;28;20741;-75
2022/08/05 11:04:07;;;;;;;0.30;0.30;;;33.80;1.00;;;;;;5040337;28;20218;-75
2022/08/05 11:06:33;;;;;;;0.35;0.35;;;33.20;1.00;;;;;;5038949;28;20195;-75
2022/08/05 11:09:19;;;;;;;0.40;0.40;;;32.70;1.00;;;;;;5044951;28;20241;-74
2022/08/05 11:11:48;;;;;;;0.47;0.47;;;32.30;1.00;;;;;;5040198;28;20243;-75
2022/08/05 11:14:26;;;;;;;0.40;0.40;;;33.30;1.00;;;;;;5049949;28;20672;-75
2022/08/05 11:17:25;;;;;;;0.40;0.40;;;33.50;1.00;;;;;;5047667;28;20578;-75
2022/08/05 11:19:52;;;;;;;0.40;0.40;;;33.70;1.00;;;;;;5046027;28;20179;-74
2022/08/05 11:22:48;;;;;;;0.40;0.40;;;33.00;1.00;;;;;;5038839;28;20198;-75
2022/08/05 11:25:34;;;;;;;0.40;0.40;;;33.70;1.00;;;;;;5044442;28;20237;-74
2022/08/05 11:28:08;;;;;;;0.40;0.40;;;34.00;1.00;;;;;;5032920;28;20278;-74
2022/08/05 11:30:56;;;;;;;0.40;0.40;;;33.80;1.00;;;;;;5043179;28;20814;-74
2022/08/05 11:33:26;;;;;;;0.40;0.40;;;33.80;1.00;;;;;;5045761;28;20199;-74
2022/08/05 11:35:57;;;;;;;0.47;0.47;;;33.00;1.00;;;;;;5050752;28;20182;-74
2022/08/05 11:38:41;;;;;;;0.30;0.30;;;33.80;1.00;;;;;;5047335;28;20663;-74
2022/08/05 11:41:17;;;;;;;0.40;0.40;;;33.70;1.00;;;;;;5041056;28;20233;-74
2022/08/05 11:43:51;;;;;;;0.43;0.43;;;33.80;1.00;;;;;;5045234;28;20214;-74
2022/08/05 11:46:17;;;;;;;0.50;0.50;;;33.60;1.00;;;;;;5046631;28;20214;-74
2022/08/05 11:48:43;;;;;;;0.40;0.40;;;33.20;1.00;;;;;;5044259;28;20185;-74
2022/08/05 11:51:09;;;;;;;0.40;0.40;;;33.20;1.00;;;;;;5044970;28;20185;-73
2022/08/05 11:53:35;;;;;;;0.50;0.50;;;33.80;1.00;;;;;;5035429;28;20562;-75
2022/08/05 11:56:02;;;;;;;0.60;0.60;;;33.80;1.00;;;;;;5047362;28;20755;-74
2022/08/05 11:58:34;;;;;;;0.43;0.43;;;33.00;1.00;;;;;;5049261;28;20619;-74
2022/08/05 12:01:02;;;;;;;0.40;0.40;;;33.10;1.00;;;;;;5033022;28;20193;-74
2022/08/05 12:03:28;;;;;;;0.50;0.50;;;33.50;1.00;;;;;;5036996;28;20223;-74
2022/08/05 12:05:58;;;;;;;0.50;0.50;;;33.30;1.00;;;;;;5035863;28;20252;-75
2022/08/05 12:08:23;;;;;;;0.60;0.60;;;33.60;1.00;;;;;;5040209;28;20215;-74
2022/08/05 12:10:50;;;;;;;0.50;0.50;;;32.90;1.00;;;;;;5043667;28;20703;-74
2022/08/05 12:13:16;;;;;;;0.50;0.50;;;33.40;1.00;;;;;;5040528;28;20711;-74
2022/08/05 12:15:45;;;;;;;0.43;0.43;;;33.10;1.00;;;;;;5038195;28;20276;-75
2022/08/05 12:18:27;;;;;;;0.45;0.45;;;33.60;1.00;;;;;;5049625;28;20247;-75
2022/08/05 12:20:52;;;;;;;0.60;0.60;;;32.60;1.00;;;;;;5046555;28;20208;-75
2022/08/05 12:23:18;;;;;;;0.50;0.50;;;32.30;1.00;;;;;;5041552;28;20254;-75
2022/08/05 12:25:53;;;;;;;0.60;0.60;;;32.70;1.00;;;;;;5045824;28;20749;-75
2022/08/05 12:28:36;;;;;;;0.60;0.60;;;32.80;1.00;;;;;;5046715;28;20182;-75
2022/08/05 12:31:02;;;;;;;0.50;0.50;;;33.20;1.00;;;;;;5041397;28;21193;-74
2022/08/05 12:33:28;;;;;;;0.50;0.50;;;33.40;1.00;;;;;;5049382;28;20205;-75
2022/08/05 12:35:55;;;;;;;0.63;0.63;;;33.30;1.00;;;;;;5048811;28;20241;-75
2022/08/05 12:38:22;;;;;;;0.60;0.60;;;32.10;1.00;;;;;;5044709;28;20191;-74
2022/08/05 12:40:49;;;;;;;0.60;0.60;;;32.40;1.00;;;;;;5046687;28;20187;-75
2022/08/05 12:43:14;;;;;;;0.60;0.60;;;33.00;1.00;;;;;;5039488;28;20741;-75
2022/08/05 12:45:51;;;;;;;0.60;0.60;;;32.10;1.00;;;;;;5042767;28;20218;-75
2022/08/05 12:48:16;;;;;;;0.60;0.60;;;32.40;1.00;;;;;;5040110;28;20221;-74
2022/08/05 12:50:42;;;;;;;0.60;0.60;;;32.50;1.00;;;;;;5040079;28;20711;-74
2022/08/05 12:53:14;;;;;;;0.65;0.65;;;32.20;1.00;;;;;;5042507;28;20813;-74
2022/08/05 12:55:39;;;;;;;0.60;0.60;;;32.90;1.00;;;;;;5037909;28;20182;-74
2022/08/05 12:58:05;;;;;;;0.60;0.60;;;33.00;1.00;;;;;;5040592;28;20187;-74
2022/08/05 13:00:32;;;;;;;0.68;0.68;;;33.40;1.00;;;;;;5037176;28;20197;-74
2022/08/05 13:03:00;;;;;;;0.60;0.60;;;32.70;1.00;;;;;;5041675;28;20208;-74
2022/08/05 13:05:26;;;;;;;0.60;0.60;;;33.10;1.00;;;;;;5044528;28;20245;-74